Time;durP1;ratioP1;P1;durP2;ratioP2;P2;SDS_P1;SDS_P2;PMS_P1;PMS_P2;Temp;Humidity;BMP_temperature;BMP_pressure;BME280_temperature;BME280_humidity;BME280_pressure;Samples;Min_cycle;Max_cycle;Signal;HPM_P1;HPM_P2
2022/03/20 00:00:26;;;;;;;92.60;48.30;;;;;;;-3.67;58.82;103434.27;88454;1271;80571;-68
2022/03/20 00:02:50;;;;;;;89.50;48.60;;;;;;;-3.68;58.96;103432.35;88402;1271;99186;-66
2022/03/20 00:05:00;;;;;;;93.10;50.70;;;;;;;-3.71;59.01;103435.02;88406;1271;86652;-68
2022/03/20 00:07:11;;;;;;;91.80;49.30;;;;;;;-3.76;58.97;103429.65;88395;1271;95264;-66
2022/03/20 00:09:23;;;;;;;92.00;48.10;;;;;;;-3.79;58.98;103430.23;88443;1271;80092;-63
2022/03/20 00:11:32;;;;;;;95.70;49.30;;;;;;;-3.84;59.12;103431.02;88388;1270;81199;-64
2022/03/20 00:13:43;;;;;;;92.30;47.20;;;;;;;-3.86;58.94;103432.29;88437;1271;99649;-63
2022/03/20 00:15:55;;;;;;;94.40;49.20;;;;;;;-3.89;59.30;103432.85;88451;1271;87451;-67
2022/03/20 00:18:06;;;;;;;88.20;47.90;;;;;;;-3.91;59.45;103432.71;88415;1271;95018;-67
2022/03/20 00:20:16;;;;;;;96.00;51.20;;;;;;;-3.92;59.32;103425.16;88406;1271;80089;-66
2022/03/20 00:22:26;;;;;;;94.50;48.50;;;;;;;-3.91;59.59;103425.48;88443;1271;81480;-66
2022/03/20 00:24:35;;;;;;;96.50;48.20;;;;;;;-3.93;59.88;103426.41;88411;1271;99919;-67
2022/03/20 00:26:52;;;;;;;91.90;48.20;;;;;;;-3.90;59.92;103424.94;88458;1271;89013;-68
2022/03/20 00:29:02;;;;;;;88.10;46.20;;;;;;;-3.86;59.95;103426.12;88402;1271;94404;-64
2022/03/20 00:31:15;;;;;;;87.90;46.40;;;;;;;-3.81;60.10;103424.09;88297;1271;76967;-63
2022/03/20 00:33:25;;;;;;;90.70;47.70;;;;;;;-3.77;60.42;103428.08;88443;1271;81808;-63
2022/03/20 00:35:34;;;;;;;86.40;45.70;;;;;;;-3.76;60.31;103427.71;88446;1271;97380;-63
2022/03/20 00:37:44;;;;;;;91.50;48.50;;;;;;;-3.76;60.44;103429.11;88441;1271;88796;-65
2022/03/20 00:39:53;;;;;;;89.60;47.50;;;;;;;-3.76;60.35;103428.94;88458;1271;94632;-67
2022/03/20 00:42:03;;;;;;;88.80;46.50;;;;;;;-3.81;60.28;103430.61;88406;1271;77961;-67
2022/03/20 00:44:12;;;;;;;87.90;46.80;;;;;;;-3.86;60.40;103432.45;88433;1271;80422;-66
2022/03/20 00:46:21;;;;;;;90.90;49.60;;;;;;;-3.91;60.49;103434.64;88463;1271;99341;-68
2022/03/20 00:48:30;;;;;;;89.70;46.40;;;;;;;-3.97;60.39;103431.91;88464;1271;88490;-66
2022/03/20 00:50:40;;;;;;;96.30;47.20;;;;;;;-4.01;60.53;103431.45;88448;1271;93316;-66
2022/03/20 00:52:50;;;;;;;96.60;50.50;;;;;;;-4.03;60.53;103429.38;88438;1271;79125;-64
2022/03/20 00:54:59;;;;;;;95.40;49.60;;;;;;;-4.07;60.56;103431.88;88467;1271;80111;-68
2022/03/20 00:57:08;;;;;;;95.20;48.00;;;;;;;-4.07;60.68;103432.60;88435;1271;96666;-67
2022/03/20 00:59:17;;;;;;;91.40;45.80;;;;;;;-4.06;60.76;103435.92;88449;1271;89035;-65
2022/03/20 01:01:28;;;;;;;86.60;45.00;;;;;;;-4.08;60.69;103433.14;88392;1270;95043;-65
2022/03/20 01:03:38;;;;;;;91.90;46.90;;;;;;;-4.15;60.95;103436.06;88448;1271;80772;-64
2022/03/20 01:05:51;;;;;;;82.50;44.10;;;;;;;-4.23;60.85;103432.46;88493;1270;80991;-64
2022/03/20 01:08:00;;;;;;;87.90;47.70;;;;;;;-4.32;61.03;103434.88;88446;1271;97565;-63
2022/03/20 01:10:11;;;;;;;92.20;47.00;;;;;;;-4.34;61.16;103432.27;88462;1271;87016;-70
2022/03/20 01:12:20;;;;;;;90.60;47.30;;;;;;;-4.33;61.28;103436.29;88436;1271;94878;-67
2022/03/20 01:14:30;;;;;;;90.10;48.10;;;;;;;-4.33;61.18;103435.23;88447;1271;82786;-70
2022/03/20 01:16:39;;;;;;;89.40;48.30;;;;;;;-4.35;61.29;103433.33;88414;1271;79955;-68
2022/03/20 01:18:48;;;;;;;90.60;47.90;;;;;;;-4.36;61.36;103437.39;88414;1271;98843;-68
2022/03/20 01:20:58;;;;;;;91.90;48.70;;;;;;;-4.40;61.66;103437.08;88387;1271;87321;-69
2022/03/20 01:23:07;;;;;;;95.60;47.90;;;;;;;-4.40;61.79;103434.10;88446;1271;94874;-68
2022/03/20 01:25:18;;;;;;;95.10;49.00;;;;;;;-4.35;61.96;103437.38;88470;1270;80539;-66
2022/03/20 01:27:27;;;;;;;89.70;47.80;;;;;;;-4.31;61.71;103433.98;88447;1271;81608;-66
2022/03/20 01:29:36;;;;;;;87.20;47.80;;;;;;;-4.34;61.90;103436.30;88463;1271;100365;-68
2022/03/20 01:31:45;;;;;;;81.70;44.70;;;;;;;-4.33;62.00;103438.75;88422;1271;88882;-69
2022/03/20 01:33:54;;;;;;;85.80;47.30;;;;;;;-4.33;62.11;103435.77;88389;1271;95348;-68
2022/03/20 01:36:04;;;;;;;97.70;49.60;;;;;;;-4.34;62.10;103431.04;88434;1271;79505;-67
2022/03/20 01:38:19;;;;;;;85.20;48.70;;;;;;;-4.34;62.02;103432.09;88424;1270;83379;-67
2022/03/20 01:40:29;;;;;;;96.30;50.00;;;;;;;-4.35;62.09;103434.38;88426;1271;99726;-64
2022/03/20 01:42:39;;;;;;;93.60;51.00;;;;;;;-4.37;62.15;103431.61;88470;1271;86021;-64
2022/03/20 01:44:49;;;;;;;103.90;52.70;;;;;;;-4.41;62.23;103431.30;88395;1271;95508;-64
2022/03/20 01:46:58;;;;;;;102.90;53.00;;;;;;;-4.44;62.23;103432.23;88446;1271;78359;-66
2022/03/20 01:49:08;;;;;;;101.20;49.50;;;;;;;-4.48;62.27;103431.74;88420;1271;80745;-66
2022/03/20 01:52:10;;;;;;;100.00;52.80;;;;;;;-4.51;62.27;103435.81;88457;1270;99801;-66
2022/03/20 01:53:48;;;;;;;94.20;49.90;;;;;;;-4.57;62.48;103436.24;88443;1271;87923;-65
2022/03/20 01:55:59;;;;;;;93.90;48.10;;;;;;;-4.61;62.51;103433.48;88420;1271;95498;-65
2022/03/20 01:58:11;;;;;;;94.20;49.30;;;;;;;-4.66;62.45;103430.21;88427;1270;78674;-65
2022/03/20 02:00:26;;;;;;;97.30;47.80;;;;;;;-4.69;62.54;103431.30;88497;1271;83697;-67
2022/03/20 02:02:35;;;;;;;90.60;47.20;;;;;;;-4.73;62.72;103432.06;88425;1271;99681;-62
2022/03/20 02:04:44;;;;;;;97.10;49.50;;;;;;;-4.78;62.74;103436.16;88436;1271;89606;-65
2022/03/20 02:06:53;;;;;;;92.30;48.70;;;;;;;-4.80;62.88;103438.81;88431;1271;93265;-64
2022/03/20 02:09:05;;;;;;;88.60;47.70;;;;;;;-4.82;62.88;103438.13;88421;1271;79126;-67
2022/03/20 02:11:14;;;;;;;102.70;52.00;;;;;;;-4.81;63.08;103434.08;88438;1271;80975;-68
2022/03/20 02:13:25;;;;;;;96.50;50.00;;;;;;;-4.77;63.11;103432.98;88424;1271;96779;-69
2022/03/20 02:15:34;;;;;;;95.70;48.00;;;;;;;-4.77;63.24;103428.23;88417;1271;89075;-65
2022/03/20 02:17:45;;;;;;;92.70;49.40;;;;;;;-4.76;63.13;103425.95;88420;1271;95344;-65
2022/03/20 02:19:54;;;;;;;95.70;49.30;;;;;;;-4.75;63.32;103425.93;88442;1270;76910;-68
2022/03/20 02:22:07;;;;;;;96.90;50.90;;;;;;;-4.75;63.36;103425.21;88434;1271;79915;-68
2022/03/20 02:24:40;;;;;;;100.80;49.10;;;;;;;-4.75;63.27;103423.46;88477;1271;97932;-68
2022/03/20 02:27:02;;;;;;;97.80;51.00;;;;;;;-4.75;63.39;103422.41;88434;1271;87381;-68
2022/03/20 02:29:11;;;;;;;96.60;50.40;;;;;;;-4.79;63.55;103422.27;88478;1271;94986;-69
2022/03/20 02:31:24;;;;;;;97.60;49.80;;;;;;;-4.83;63.56;103420.75;88422;1271;77941;-68
2022/03/20 02:33:37;;;;;;;86.60;48.20;;;;;;;-4.85;63.61;103422.00;88445;1271;79526;-68
2022/03/20 02:35:49;;;;;;;96.50;49.20;;;;;;;-4.88;63.81;103417.10;88457;1271;99774;-65
2022/03/20 02:38:02;;;;;;;89.50;48.80;;;;;;;-4.90;63.71;103423.80;88457;1271;87323;-65
2022/03/20 02:40:14;;;;;;;95.80;48.60;;;;;;;-4.91;63.79;103423.84;88435;1271;93324;-68
2022/03/20 02:42:24;;;;;;;94.80;48.10;;;;;;;-4.94;63.91;103424.38;88450;1271;77253;-68
2022/03/20 02:45:03;;;;;;;91.20;48.40;;;;;;;-4.97;63.91;103426.52;88487;1270;81225;-68
2022/03/20 02:47:15;;;;;;;92.70;46.90;;;;;;;-5.00;64.03;103430.06;88436;1271;99103;-66
2022/03/20 02:49:24;;;;;;;94.40;49.50;;;;;;;-5.03;63.98;103430.98;88411;1271;89536;-66
2022/03/20 02:51:35;;;;;;;87.30;47.20;;;;;;;-5.07;63.93;103429.80;88433;1270;94123;-67
2022/03/20 02:53:44;;;;;;;97.10;50.90;;;;;;;-5.12;64.03;103433.89;88440;1271;81370;-67
2022/03/20 02:55:54;;;;;;;92.00;48.30;;;;;;;-5.17;64.10;103433.42;88462;1271;82684;-64
2022/03/20 02:58:06;;;;;;;98.70;50.00;;;;;;;-5.21;64.16;103433.80;88423;1271;97958;-64
2022/03/20 03:00:21;;;;;;;88.40;49.00;;;;;;;-5.24;64.29;103432.07;88459;1271;88249;-66
2022/03/20 03:02:31;;;;;;;95.60;48.10;;;;;;;-5.22;64.45;103432.23;88438;1271;93652;-66
2022/03/20 03:04:43;;;;;;;95.80;49.90;;;;;;;-5.17;64.58;103437.98;88474;1271;81229;-65
2022/03/20 03:06:55;;;;;;;94.10;51.10;;;;;;;-5.12;64.63;103438.98;88416;1271;81753;-67
2022/03/20 03:11:31;;;;;;;101.60;52.10;;;;;;;-5.07;64.85;103439.98;88447;1271;86671;-66
2022/03/20 03:13:44;;;;;;;104.30;53.50;;;;;;;-5.09;65.05;103443.88;87770;1270;894903;-67
2022/03/20 03:15:58;;;;;;;80.00;40.10;;;;;;;-5.09;64.72;103442.30;88442;1271;81075;-64
2022/03/20 03:18:07;;;;;;;95.10;51.00;;;;;;;-5.14;64.74;103444.63;88442;1271;83459;-64
2022/03/20 03:20:19;;;;;;;93.70;49.50;;;;;;;-5.17;64.88;103442.20;88455;1271;99055;-67
2022/03/20 03:22:29;;;;;;;104.30;51.40;;;;;;;-5.15;64.79;103441.13;88570;1269;89352;-66
2022/03/20 03:24:41;;;;;;;96.20;51.40;;;;;;;-5.12;64.86;103438.45;88427;1271;96168;-67
2022/03/20 03:26:50;;;;;;;92.30;49.40;;;;;;;-5.04;64.92;103440.48;88438;1270;77901;-66
2022/03/20 03:28:59;;;;;;;99.70;49.20;;;;;;;-5.03;64.81;103440.46;88453;1271;81969;-64
2022/03/20 03:31:13;;;;;;;98.30;49.20;;;;;;;-5.03;64.93;103433.96;88457;1271;98651;-64
2022/03/20 03:33:25;;;;;;;94.70;49.20;;;;;;;-5.02;64.58;103432.72;88462;1271;86476;-65
2022/03/20 03:35:47;;;;;;;97.40;49.40;;;;;;;-5.02;64.72;103429.22;88417;1270;95163;-67
2022/03/20 03:37:56;;;;;;;99.70;48.80;;;;;;;-5.06;64.66;103427.50;88349;1271;80415;-66
2022/03/20 03:40:11;;;;;;;92.00;47.60;;;;;;;-5.09;64.79;103432.45;88455;1271;82566;-65
2022/03/20 03:42:22;;;;;;;101.70;51.70;;;;;;;-5.12;64.78;103429.49;88451;1271;98155;-64
2022/03/20 03:44:32;;;;;;;107.00;54.90;;;;;;;-5.15;64.98;103426.19;88463;1271;86678;-65
2022/03/20 03:46:41;;;;;;;110.90;54.60;;;;;;;-5.15;64.78;103428.13;88297;1271;95328;-65
2022/03/20 03:48:54;;;;;;;110.70;56.90;;;;;;;-5.16;64.75;103429.70;88433;1271;81177;-64
2022/03/20 03:51:07;;;;;;;113.00;55.80;;;;;;;-5.14;64.99;103430.41;88475;1271;80030;-67
2022/03/20 03:53:16;;;;;;;118.20;56.90;;;;;;;-5.12;65.11;103428.44;88443;1271;100268;-67
2022/03/20 03:55:26;;;;;;;112.80;54.70;;;;;;;-5.09;65.16;103429.63;88460;1270;89487;-67
2022/03/20 03:57:35;;;;;;;111.70;52.60;;;;;;;-5.04;65.39;103429.06;88438;1271;93000;-66
2022/03/20 03:59:45;;;;;;;105.40;51.90;;;;;;;-5.01;65.28;103433.78;88449;1270;82216;-64
2022/03/20 04:01:57;;;;;;;99.70;52.00;;;;;;;-4.99;65.24;103433.76;88333;1270;81514;-64
2022/03/20 04:04:06;;;;;;;101.20;50.90;;;;;;;-5.01;65.18;103439.73;88327;1271;99260;-64
2022/03/20 04:06:16;;;;;;;103.60;50.70;;;;;;;-4.98;65.25;103439.71;88341;1271;87922;-64
2022/03/20 04:08:28;;;;;;;101.50;49.40;;;;;;;-4.97;65.14;103443.56;88316;1271;95419;-64
2022/03/20 04:10:37;;;;;;;105.30;50.80;;;;;;;-4.99;64.99;103442.19;88328;1270;79282;-65
2022/03/20 04:12:49;;;;;;;120.60;53.40;;;;;;;-5.02;64.99;103441.52;88335;1270;81538;-66
2022/03/20 04:15:02;;;;;;;117.90;53.30;;;;;;;-5.05;65.08;103441.02;88350;1271;99358;-65
2022/03/20 04:17:14;;;;;;;121.30;55.00;;;;;;;-5.08;65.03;103446.33;88313;1271;88259;-67
2022/03/20 04:19:26;;;;;;;118.00;53.10;;;;;;;-5.13;64.86;103441.62;88366;1270;95224;-68
2022/03/20 04:21:35;;;;;;;110.80;52.90;;;;;;;-5.19;64.93;103439.04;88320;1271;78361;-68
2022/03/20 04:23:48;;;;;;;102.60;50.70;;;;;;;-5.23;64.98;103442.95;88350;1270;80467;-68
2022/03/20 04:25:57;;;;;;;107.00;50.90;;;;;;;-5.26;65.05;103440.88;88332;1270;99695;-67
2022/03/20 04:28:07;;;;;;;103.20;50.50;;;;;;;-5.31;65.08;103441.45;88357;1270;89831;-67
2022/03/20 04:30:16;;;;;;;104.50;50.40;;;;;;;-5.36;64.86;103443.77;88342;1271;94955;-66
2022/03/20 04:32:30;;;;;;;99.60;49.00;;;;;;;-5.40;64.97;103449.61;88365;1270;77710;-66
2022/03/20 04:34:39;;;;;;;102.00;48.40;;;;;;;-5.46;65.08;103446.15;88367;1270;79958;-65
2022/03/20 04:36:51;;;;;;;104.40;48.80;;;;;;;-5.49;65.23;103447.58;88377;1270;98158;-64
2022/03/20 04:39:01;;;;;;;103.40;51.10;;;;;;;-5.53;65.26;103445.50;88374;1270;89366;-66
2022/03/20 04:41:14;;;;;;;102.40;50.90;;;;;;;-5.54;65.27;103440.59;88348;1268;93036;-67
2022/03/20 04:43:27;;;;;;;100.90;49.80;;;;;;;-5.53;65.43;103444.10;88327;1270;81696;-66
2022/03/20 04:45:36;;;;;;;95.70;49.30;;;;;;;-5.52;65.56;103447.96;88344;1270;83060;-68
2022/03/20 05:00:15;;;;;;;103.40;48.30;;;;;;;-5.15;65.97;103460.44;88251;1271;98117;-68
2022/03/20 05:02:25;;;;;;;103.10;50.40;;;;;;;-5.10;65.82;103462.50;88459;1271;89504;-67
2022/03/20 05:04:37;;;;;;;110.80;53.40;;;;;;;-5.07;65.72;103458.26;88397;1271;93766;-66
2022/03/20 05:06:46;;;;;;;104.90;51.50;;;;;;;-5.06;65.74;103464.23;88421;1271;78800;-65
2022/03/20 05:13:19;;;;;;;110.70;52.90;;;;;;;-5.05;65.77;103466.30;88450;1271;81634;-65
2022/03/20 05:13:59;;;;;;;97.70;49.10;;;;;;;-4.94;65.71;103466.73;88476;1271;88694;-66
2022/03/20 05:16:08;;;;;;;94.90;48.00;;;;;;;-4.92;65.65;103472.33;88426;1270;94369;-67
2022/03/20 05:18:19;;;;;;;98.00;47.90;;;;;;;-4.89;65.66;103469.49;88431;1271;78331;-68
2022/03/20 05:20:28;;;;;;;107.10;50.40;;;;;;;-4.84;65.71;103473.13;88467;1271;82294;-67
2022/03/20 05:22:40;;;;;;;100.70;50.00;;;;;;;-4.72;65.70;103471.60;88432;1270;98211;-67
2022/03/20 05:24:52;;;;;;;101.60;49.20;;;;;;;-4.40;65.62;103470.15;88462;1271;89302;-65
2022/03/20 05:27:01;;;;;;;98.30;49.80;;;;;;;-4.29;65.39;103471.25;88418;1271;95649;-65
2022/03/20 05:29:12;;;;;;;95.80;50.20;;;;;;;-4.20;65.53;103471.83;88441;1271;79054;-65
2022/03/20 05:31:21;;;;;;;90.90;48.60;;;;;;;-4.19;65.36;103480.27;88412;1271;83325;-65
2022/03/20 05:33:31;;;;;;;91.50;49.30;;;;;;;-4.16;65.50;103483.75;88428;1270;99687;-65
2022/03/20 05:35:42;;;;;;;98.90;50.90;;;;;;;-4.09;65.27;103479.24;88422;1271;88003;-64
2022/03/20 05:37:51;;;;;;;96.00;48.70;;;;;;;-3.95;65.23;103481.70;88438;1270;95606;-65
2022/03/20 05:40:00;;;;;;;100.90;49.80;;;;;;;-3.84;65.39;103486.83;88386;1271;80414;-66
2022/03/20 05:42:10;;;;;;;95.90;49.70;;;;;;;-3.74;65.29;103488.27;88416;1271;82216;-66
2022/03/20 05:44:25;;;;;;;98.20;50.70;;;;;;;-3.62;65.31;103491.24;88341;1271;98870;-69
2022/03/20 05:46:34;;;;;;;95.70;51.10;;;;;;;-3.47;65.29;103489.61;88468;1271;87648;-65
2022/03/20 05:48:46;;;;;;;104.80;55.10;;;;;;;-3.28;65.26;103490.34;88339;1270;94402;-65
2022/03/20 05:50:55;;;;;;;98.30;53.40;;;;;;;-2.84;65.48;103485.67;88467;1270;79289;-65
2022/03/20 05:53:05;;;;;;;95.20;52.30;;;;;;;-1.52;65.56;103484.75;88270;1274;81557;-64
2022/03/20 05:55:14;;;;;;;99.30;55.10;;;;;;;0.03;64.00;103479.10;88442;1271;98808;-64
2022/03/20 05:59:55;;;;;;;99.20;56.30;;;;;;;3.57;61.54;103476.62;88395;1271;93237;-68
2022/03/20 06:02:09;;;;;;;96.50;55.70;;;;;;;4.95;59.52;103475.78;88443;1271;77455;-66
2022/03/20 06:04:19;;;;;;;90.90;55.10;;;;;;;6.31;58.18;103476.86;88423;1271;80741;-66
2022/03/20 06:06:29;;;;;;;92.10;56.70;;;;;;;7.37;56.19;103472.72;88466;1271;97724;-66
2022/03/20 06:08:41;;;;;;;82.50;53.20;;;;;;;8.14;54.22;103472.67;88458;1271;88510;-66
2022/03/20 06:10:54;;;;;;;83.00;55.30;;;;;;;8.78;52.92;103476.49;88419;1271;95140;-65
2022/03/20 06:13:06;;;;;;;83.20;51.40;;;;;;;9.43;51.67;103475.61;88434;1271;78634;-65
2022/03/20 06:15:16;;;;;;;76.30;51.60;;;;;;;9.96;50.47;103478.09;88447;1271;81557;-66
2022/03/20 06:17:28;;;;;;;75.40;49.40;;;;;;;10.52;49.06;103478.89;88424;1271;97159;-64
2022/03/20 06:19:40;;;;;;;73.60;48.10;;;;;;;10.63;48.09;103481.98;88428;1271;89459;-66
2022/03/20 06:21:52;;;;;;;66.70;46.90;;;;;;;10.98;47.20;103482.76;88435;1271;94134;-67
2022/03/20 06:24:02;;;;;;;66.40;46.50;;;;;;;11.35;46.50;103482.61;88425;1271;81291;-65
2022/03/20 06:26:12;;;;;;;66.20;46.80;;;;;;;11.64;46.12;103480.84;88393;1270;83332;-65
2022/03/20 06:28:24;;;;;;;61.40;45.10;;;;;;;11.80;45.30;103481.20;88408;1271;96956;-64
2022/03/20 06:30:37;;;;;;;64.30;47.40;;;;;;;12.31;44.35;103482.80;88451;1271;88514;-67
2022/03/20 06:32:47;;;;;;;64.60;47.60;;;;;;;12.76;43.12;103481.55;88443;1268;95128;-67
2022/03/20 06:34:56;;;;;;;65.80;47.40;;;;;;;13.09;42.70;103484.17;88455;1271;79782;-67
2022/03/20 06:37:06;;;;;;;58.40;41.20;;;;;;;13.42;41.45;103487.10;88425;1270;81358;-65
2022/03/20 06:39:15;;;;;;;53.60;38.20;;;;;;;12.96;40.93;103492.52;88423;1271;100449;-65
2022/03/20 06:41:24;;;;;;;50.30;34.90;;;;;;;13.39;40.74;103486.05;88430;1271;89200;-67
2022/03/20 06:43:35;;;;;;;49.40;35.20;;;;;;;13.39;39.82;103485.06;88434;1271;95674;-66
2022/03/20 06:45:48;;;;;;;47.20;33.70;;;;;;;13.78;39.39;103484.60;88445;1271;77756;-67
2022/03/20 06:47:56;;;;;;;49.40;35.30;;;;;;;14.48;38.10;103486.64;88433;1271;81366;-66
2022/03/20 06:50:11;;;;;;;47.80;36.50;;;;;;;15.21;36.91;103487.23;88426;1271;100235;-65
2022/03/20 06:52:23;;;;;;;41.50;32.30;;;;;;;16.04;36.46;103484.09;88472;1270;88474;-65
2022/03/20 06:54:35;;;;;;;43.30;31.80;;;;;;;16.77;35.42;103485.57;88456;1271;94274;-66
2022/03/20 06:56:46;;;;;;;40.10;31.70;;;;;;;16.64;34.69;103486.11;88452;1271;80816;-66
2022/03/20 06:58:59;;;;;;;41.20;32.40;;;;;;;16.43;34.26;103486.22;88466;1271;82122;-65
2022/03/20 07:01:11;;;;;;;40.60;29.60;;;;;;;16.43;33.59;103489.81;88434;1271;98696;-67
2022/03/20 07:03:21;;;;;;;38.20;28.90;;;;;;;16.48;33.24;103493.70;88415;1271;88329;-65
2022/03/20 07:05:33;;;;;;;34.80;27.40;;;;;;;16.61;31.43;103496.42;88417;1271;94357;-65
2022/03/20 07:07:42;;;;;;;36.70;28.50;;;;;;;16.93;31.63;103496.29;88438;1271;78432;-65
2022/03/20 07:09:55;;;;;;;31.90;27.30;;;;;;;17.27;30.35;103494.29;88334;1270;81571;-64
2022/03/20 07:12:10;;;;;;;30.70;25.30;;;;;;;17.20;30.19;103499.06;88431;1271;98313;-66
2022/03/20 07:14:19;;;;;;;34.40;27.20;;;;;;;18.12;29.78;103495.73;88462;1271;88080;-65
2022/03/20 07:16:33;;;;;;;36.50;28.10;;;;;;;18.82;29.33;103493.92;88327;1271;96013;-65
2022/03/20 07:18:43;;;;;;;31.90;25.90;;;;;;;19.50;28.65;103492.16;88444;1271;81628;-65
2022/03/20 07:20:56;;;;;;;31.40;25.50;;;;;;;19.41;27.99;103492.30;88440;1271;82056;-66
2022/03/20 07:23:07;;;;;;;31.20;26.00;;;;;;;19.65;27.96;103493.42;88431;1271;99911;-66
2022/03/20 07:30:15;;;;;;;30.40;24.40;;;;;;;21.06;25.83;103482.65;88451;1268;78528;-66
2022/03/20 07:32:27;;;;;;;27.20;22.70;;;;;;;21.71;25.74;103477.40;88460;1271;80452;-66
2022/03/20 07:34:44;;;;;;;29.50;22.90;;;;;;;21.96;25.30;103474.86;88479;1271;99699;-65
2022/03/20 07:36:56;;;;;;;26.80;23.20;;;;;;;22.43;24.90;103474.14;88428;1271;87854;-65
2022/03/20 07:39:07;;;;;;;25.00;19.20;;;;;;;22.75;24.46;103471.71;88418;1271;95037;-66
2022/03/20 07:41:17;;;;;;;19.10;16.10;;;;;;;23.26;23.61;103472.14;88410;1271;80507;-66
2022/03/20 07:43:26;;;;;;;17.80;15.20;;;;;;;23.75;22.65;103470.94;88469;1270;82756;-62
2022/03/20 07:45:41;;;;;;;17.60;15.50;;;;;;;24.29;21.69;103462.77;88446;1271;97971;-67
2022/03/20 07:47:53;;;;;;;15.90;14.00;;;;;;;24.12;21.39;103466.15;88435;1271;89483;-69
2022/03/20 07:50:04;;;;;;;13.30;10.90;;;;;;;24.17;20.75;103465.78;88462;1271;94363;-63
2022/03/20 07:52:13;;;;;;;11.70;9.90;;;;;;;24.54;20.41;103469.29;88448;1271;77420;-63
2022/03/20 07:54:26;;;;;;;10.80;9.70;;;;;;;24.64;20.29;103466.52;88460;1271;82428;-64
2022/03/20 07:56:37;;;;;;;12.90;11.50;;;;;;;24.44;19.65;103462.84;88452;1271;100565;-63
2022/03/20 07:58:47;;;;;;;11.70;10.40;;;;;;;24.10;18.54;103467.09;88447;1271;87102;-67
2022/03/20 08:01:00;;;;;;;10.80;9.10;;;;;;;23.70;17.04;103470.40;88436;1271;94759;-62
2022/03/20 08:03:12;;;;;;;11.10;10.00;;;;;;;23.37;17.55;103474.08;88456;1269;79135;-66
2022/03/20 08:05:25;;;;;;;15.50;11.60;;;;;;;23.16;17.75;103472.26;88447;1271;81513;-68
2022/03/20 08:07:39;;;;;;;11.90;10.70;;;;;;;23.46;16.90;103474.59;88440;1270;99432;-66
2022/03/20 08:09:48;;;;;;;12.00;10.20;;;;;;;23.47;16.95;103476.80;88462;1271;88119;-65
2022/03/20 08:12:03;;;;;;;11.00;9.30;;;;;;;23.68;16.55;103481.59;88392;1271;93874;-66
2022/03/20 08:14:16;;;;;;;12.40;11.00;;;;;;;23.80;16.67;103475.90;88470;1271;77490;-67
2022/03/20 08:16:28;;;;;;;;;;;;;;;23.16;17.18;103478.67;88467;1269;80455;-66
2022/03/20 08:18:42;;;;;;;14.70;12.20;;;;;;;23.14;17.33;103481.36;88444;1271;99048;-67
2022/03/20 08:20:56;;;;;;;14.10;10.90;;;;;;;23.17;16.40;103480.96;88438;1271;87770;-67
2022/03/20 08:23:06;;;;;;;17.50;14.70;;;;;;;22.61;16.85;103476.37;88417;1270;94539;-64
2022/03/20 08:25:19;;;;;;;13.90;11.90;;;;;;;22.94;17.15;103476.58;88450;1271;76763;-66
2022/03/20 08:27:30;;;;;;;20.90;16.40;;;;;;;23.26;17.07;103475.84;88441;1271;82317;-65
2022/03/20 08:29:40;;;;;;;16.90;14.80;;;;;;;23.66;16.91;103474.73;88416;1271;99678;-65
2022/03/20 08:31:54;;;;;;;14.90;13.20;;;;;;;23.41;16.40;103476.45;88458;1271;86249;-66
2022/03/20 08:34:04;;;;;;;18.20;15.60;;;;;;;23.03;16.67;103471.12;88429;1271;95857;-65
2022/03/20 08:36:17;;;;;;;15.30;13.00;;;;;;;22.70;16.10;103471.23;88448;1271;77792;-67
2022/03/20 08:38:25;;;;;;;;;;;;;;;22.94;16.29;103472.59;88452;1271;79811;-67
2022/03/20 08:40:37;;;;;;;16.30;13.10;;;;;;;22.88;16.45;103472.52;88438;1271;98650;-68
2022/03/20 08:42:53;;;;;;;14.80;12.90;;;;;;;22.83;15.99;103473.58;88464;1271;87706;-67
2022/03/20 08:45:02;;;;;;;13.00;11.60;;;;;;;22.63;15.61;103476.66;88463;1271;95544;-66
2022/03/20 08:47:12;;;;;;;11.80;10.60;;;;;;;22.51;15.69;103469.45;88448;1271;79974;-65
2022/03/20 08:49:24;;;;;;;13.30;11.90;;;;;;;22.45;15.06;103470.11;88482;1271;80967;-66
2022/03/20 08:51:35;;;;;;;11.70;10.40;;;;;;;22.61;16.00;103470.02;88431;1271;98225;-65
2022/03/20 08:53:45;;;;;;;10.80;9.70;;;;;;;22.73;15.94;103470.20;88449;1271;87952;-67
2022/03/20 08:55:54;;;;;;;12.30;10.60;;;;;;;22.59;16.11;103468.52;88434;1271;94720;-65
2022/03/20 08:58:08;;;;;;;11.40;10.00;;;;;;;22.45;15.36;103472.09;88422;1270;79484;-67
2022/03/20 09:00:25;;;;;;;16.30;13.20;;;;;;;22.23;15.73;103466.55;88335;1271;80413;-66
2022/03/20 09:02:34;;;;;;;20.50;16.50;;;;;;;21.87;15.18;103470.16;88343;1270;99573;-67
2022/03/20 09:04:43;;;;;;;12.80;10.90;;;;;;;21.87;16.03;103467.73;88310;1268;88513;-64
2022/03/20 09:06:55;;;;;;;14.60;11.80;;;;;;;21.43;15.24;103472.30;88320;1270;96169;-65
2022/03/20 09:09:07;;;;;;;13.70;12.30;;;;;;;21.38;15.64;103471.00;88327;1270;77767;-65
2022/03/20 09:11:16;;;;;;;13.40;12.00;;;;;;;21.59;15.86;103466.47;88324;1271;81130;-65
2022/03/20 09:13:25;;;;;;;12.60;11.30;;;;;;;21.54;15.64;103462.98;88309;1270;100405;-66
2022/03/20 09:15:38;;;;;;;13.60;12.20;;;;;;;21.47;15.82;103461.52;88326;1270;89094;-64
2022/03/20 09:20:17;;;;;;;17.00;14.00;;;;;;;21.03;15.54;103466.34;88328;1270;80278;-68
2022/03/20 09:22:26;;;;;;;18.70;15.00;;;;;;;20.80;15.25;103464.58;88319;1270;80682;-67
2022/03/20 09:24:35;;;;;;;17.50;15.50;;;;;;;20.90;15.74;103461.66;88342;1270;100258;-68
2022/03/20 09:26:45;;;;;;;15.10;13.00;;;;;;;21.13;15.48;103465.24;88320;1270;88044;-68
2022/03/20 09:28:54;;;;;;;15.60;12.90;;;;;;;21.06;15.66;103460.84;88310;1270;95548;-64
2022/03/20 09:31:03;;;;;;;15.40;12.00;;;;;;;20.78;15.05;103463.52;88311;1270;79242;-64
2022/03/20 09:33:13;;;;;;;13.70;11.70;;;;;;;20.27;15.79;103460.42;88318;1270;81310;-64
2022/03/20 09:35:22;;;;;;;12.30;10.60;;;;;;;20.37;15.48;103454.99;88279;1274;98176;-65
2022/03/20 09:37:32;;;;;;;14.00;11.90;;;;;;;20.49;16.35;103453.34;88345;1270;89333;-64
2022/03/20 09:39:44;;;;;;;13.90;12.40;;;;;;;20.41;15.69;103457.81;88322;1270;94706;-65
2022/03/20 09:41:55;;;;;;;13.20;11.80;;;;;;;20.16;15.50;103453.99;88319;1270;77720;-68
2022/03/20 09:44:08;;;;;;;12.20;10.50;;;;;;;19.82;15.62;103453.20;88348;1274;81264;-69
2022/03/20 09:46:22;;;;;;;12.40;10.30;;;;;;;19.39;16.06;103456.28;88333;1270;100156;-69
2022/03/20 09:48:32;;;;;;;26.90;22.20;;;;;;;19.16;16.23;103447.79;88325;1270;87223;-66
2022/03/20 09:50:48;;;;;;;40.00;35.60;;;;;;;19.12;16.63;103452.92;88302;1270;94659;-67
2022/03/20 09:53:00;;;;;;;11.80;9.80;;;;;;;18.82;16.78;103449.48;88309;1270;79521;-68
2022/03/20 09:55:15;;;;;;;11.50;9.30;;;;;;;18.70;16.82;103447.14;88341;1270;82951;-66
2022/03/20 09:57:30;;;;;;;12.40;9.40;;;;;;;18.01;16.67;103445.34;88345;1270;99342;-67
2022/03/20 09:59:43;;;;;;;10.20;9.00;;;;;;;17.29;16.27;103445.33;88319;1270;87268;-69
2022/03/20 10:01:54;;;;;;;;;;;;;;;16.51;16.62;103443.73;88368;1270;95134;-72
2022/03/20 10:04:17;;;;;;;10.10;8.80;;;;;;;15.98;17.28;103445.80;88335;1270;76272;-70
2022/03/20 10:06:36;;;;;;;11.00;9.60;;;;;;;15.44;17.67;103455.15;88363;1270;82533;-67
2022/03/20 10:09:09;;;;;;;10.50;9.00;;;;;;;14.97;17.67;103456.52;88332;1270;99223;-66
2022/03/20 10:11:22;;;;;;;10.70;8.60;;;;;;;14.51;17.84;103458.44;88313;1270;88948;-65
2022/03/20 10:13:34;;;;;;;10.90;9.40;;;;;;;13.74;18.18;103451.89;88359;1270;92841;-64
2022/03/20 10:15:45;;;;;;;11.00;9.30;;;;;;;13.55;18.37;103449.21;88473;1271;78359;-67
2022/03/20 10:18:10;;;;;;;10.90;8.00;;;;;;;13.36;18.66;103448.14;88446;1271;82155;-66
2022/03/20 10:20:25;;;;;;;12.20;9.80;;;;;;;13.10;18.79;103448.62;88447;1271;100262;-64
2022/03/20 10:22:35;;;;;;;11.10;9.60;;;;;;;13.10;19.04;103442.89;88449;1271;89614;-63
2022/03/20 10:24:51;;;;;;;11.90;9.30;;;;;;;13.23;19.45;103440.77;88453;1271;94070;-63